Date,TemperatureHighF,TemperatureAvgF,TemperatureLowF,DewpointHighF,DewpointAvgF,DewpointLowF,HumidityHigh,HumidityAvg,HumidityLow,PressureMaxIn,PressureMinIn,WindSpeedMaxMPH,WindSpeedAvgMPH,GustSpeedMaxMPH,PrecipitationSumIn
2013-5-1,71,55,35,42,35,26,84,52,20,30.48,30.32,11,2,11,0.00
2013-5-2,80,60,38,49,40,35,90,54,26,30.46,30.31,7,2,7,0.00
2013-5-3,69,58,45,41,36,-26,79,47,14,30.44,30.34,15,3,15,0.00
2013-5-4,73,55,40,50,39,31,90,59,30,30.37,30.22,11,2,11,0.00
2013-5-5,65,52,37,42,37,32,90,62,32,30.29,30.20,11,2,11,0.00
2013-5-6,71,56,40,52,44,35,87,68,49,30.26,30.14,11,2,11,0.00
2013-5-7,77,62,45,56,51,42,91,68,43,30.17,30.07,10,2,10,0.00
2013-5-8,70,62,53,62,57,50,95,85,70,30.09,29.95,12,2,12,1.29
2013-5-9,71,60,51,58,54,49,95,82,54,30.00,29.88,8,1,8,0.21
2013-5-10,82,68,50,63,54,48,96,66,35,30.00,29.88,11,2,11,0.00
2013-5-11,73,66,62,64,62,57,96,87,70,29.91,29.69,12,2,12,0.66
2013-5-12,69,62,50,61,43,4,96,56,24,29.94,29.66,19,6,19,0.20
2013-5-13,57,49,39,33,28,23,71,44,28,30.10,29.93,17,4,17,0.00
2013-5-14,63,51,37,34,27,19,75,44,19,30.13,30.01,12,3,12,0.00
2013-5-15,76,59,41,56,45,33,77,61,44,30.06,29.66,11,2,11,0.00
2013-5-18,68,58,50,54,49,42,82,73,49,30.30,30.19,4,1,4,0.00
2013-5-19,58,57,55,57,55,52,97,93,81,30.30,30.17,7,1,7,0.52
2013-5-20,81,68,58,66,62,57,99,83,58,30.17,29.95,10,2,10,0.01
2013-5-21,89,75,61,71,66,60,98,76,52,29.97,29.83,11,3,11,0.00
2013-5-22,86,73,63,72,67,59,95,81,63,29.93,29.81,8,2,8,0.00
2013-5-23,79,72,68,72,69,66,99,90,71,29.88,29.74,11,2,11,1.77
2013-5-24,68,54,45,68,50,39,99,86,71,29.96,29.68,18,5,18,0.40
2013-5-25,57,50,45,42,40,35,87,67,48,30.02,29.90,28,8,28,0.01
2013-5-26,69,58,47,39,36,32,68,46,28,30.20,29.97,22,6,22,0.04
2013-5-27,76,60,40,51,40,34,92,53,26,30.24,30.11,11,2,11,0.00
2013-5-28,67,57,49,56,50,44,95,79,55,30.22,30.14,5,1,5,0.48
2013-5-29,75,64,58,67,62,58,99,93,75,30.12,30.06,8,2,8,0.01
2013-5-30,92,80,68,70,66,17,94,66,10,30.13,30.05,13,2,13,0.00
2013-5-31,94,83,64,73,63,6,95,55,10,30.12,29.98,56,2,56,0.19